createdAt,value
2023-03-27T00:01:11.180Z,2.20
2023-03-27T00:03:42.696Z,2.10
2023-03-27T00:06:16.047Z,2.00
2023-03-27T00:08:51.975Z,1.90
2023-03-27T00:16:29.088Z,1.90
2023-03-27T00:19:00.012Z,1.80
2023-03-27T00:21:27.984Z,1.80
2023-03-27T00:24:11.101Z,1.70
2023-03-27T00:26:55.490Z,1.60
2023-03-27T00:29:22.961Z,1.60
2023-03-27T00:32:11.777Z,1.30
2023-03-27T00:39:49.436Z,1.30
2023-03-27T00:42:22.224Z,1.20
2023-03-27T00:44:56.673Z,1.00
2023-03-27T00:47:32.814Z,1.00
2023-03-27T00:50:06.609Z,1.00
2023-03-27T00:52:36.499Z,0.80
2023-03-27T00:55:16.957Z,0.80
2023-03-27T01:00:30.321Z,0.70
2023-03-27T01:02:57.859Z,0.50
2023-03-27T01:05:28.614Z,0.50
2023-03-27T01:08:08.753Z,0.40
2023-03-27T01:10:49.847Z,0.40
2023-03-27T01:13:43.719Z,0.30
2023-03-27T01:16:20.204Z,0.30
2023-03-27T01:23:36.374Z,0.40
2023-03-27T01:26:42.854Z,0.20
2023-03-27T01:29:13.208Z,0.30
2023-03-27T01:31:53.827Z,0.20
2023-03-27T01:34:49.502Z,0.10
2023-03-27T01:37:50.578Z,0.00
2023-03-27T01:45:04.626Z,0.10
2023-03-27T01:47:45.828Z,0.10
2023-03-27T01:50:21.225Z,0.00
2023-03-27T01:53:00.656Z,0.00
2023-03-27T01:55:31.800Z,0.10
2023-03-27T01:58:02.567Z,0.00
2023-03-27T02:00:51.129Z,0.10
2023-03-27T02:07:59.653Z,0.10
2023-03-27T02:10:32.844Z,0.10
2023-03-27T02:13:05.513Z,0.20
2023-03-27T02:15:37.007Z,0.10
2023-03-27T02:18:09.589Z,0.00
2023-03-27T02:20:39.172Z,0.10
2023-03-27T02:23:09.272Z,0.00
2023-03-27T02:31:06.757Z,-0.10
2023-03-27T02:33:51.277Z,-0.20
2023-03-27T02:36:28.210Z,-0.30
2023-03-27T02:39:02.157Z,-0.20
2023-03-27T02:41:37.537Z,-0.30
2023-03-27T02:44:11.610Z,-0.30
2023-03-27T02:49:26.891Z,-0.20
2023-03-27T02:51:59.345Z,-0.30
2023-03-27T02:54:30.082Z,-0.20
2023-03-27T02:57:03.608Z,-0.30
2023-03-27T02:59:36.471Z,-0.30
2023-03-27T03:02:06.571Z,-0.40
2023-03-27T03:04:41.335Z,-0.40
2023-03-27T03:12:04.805Z,-0.30
2023-03-27T03:14:35.583Z,-0.40
2023-03-27T03:17:02.969Z,-0.50
2023-03-27T03:19:31.175Z,-0.50
2023-03-27T03:22:08.281Z,-0.50
2023-03-27T03:24:35.787Z,-0.40
2023-03-27T03:27:05.141Z,-0.50
2023-03-27T03:32:29.994Z,-0.50
2023-03-27T03:34:58.352Z,-0.50
2023-03-27T03:37:27.911Z,-0.50
2023-03-27T03:39:55.674Z,-0.50
2023-03-27T03:42:24.071Z,-0.40
2023-03-27T03:44:53.404Z,-0.50
2023-03-27T03:47:20.693Z,-0.50
2023-03-27T03:57:29.122Z,-0.50
2023-03-27T03:59:57.695Z,-0.50
2023-03-27T04:02:31.434Z,-0.60
2023-03-27T04:04:59.726Z,-0.50
2023-03-27T04:07:30.842Z,-0.50
2023-03-27T04:09:58.909Z,-0.60
2023-03-27T04:12:26.865Z,-0.60
2023-03-27T04:19:57.458Z,-0.60
2023-03-27T04:22:25.726Z,-0.60
2023-03-27T04:24:53.946Z,-0.60
2023-03-27T04:27:23.298Z,-0.60
2023-03-27T04:29:50.579Z,-0.50
2023-03-27T04:32:19.031Z,-0.50
2023-03-27T04:34:47.840Z,-0.60
2023-03-27T04:42:22.943Z,-0.60
2023-03-27T04:44:53.115Z,-0.30
2023-03-27T04:47:21.346Z,-0.20
2023-03-27T04:49:52.783Z,-0.20
2023-03-27T04:52:19.986Z,-0.20
2023-03-27T04:54:47.807Z,0.00
2023-03-27T04:57:18.427Z,-0.10
2023-03-27T05:04:48.915Z,-0.30
2023-03-27T05:07:16.204Z,-0.30
2023-03-27T05:09:46.311Z,-0.30
2023-03-27T05:12:13.614Z,-0.40
2023-03-27T05:14:40.910Z,-0.30
2023-03-27T05:17:08.874Z,-0.30
2023-03-27T05:19:38.684Z,-0.50
2023-03-27T05:26:18.610Z,-0.60
2023-03-27T05:28:45.582Z,-0.40
2023-03-27T05:31:13.505Z,-0.40
2023-03-27T05:33:41.449Z,-0.30
2023-03-27T05:36:09.774Z,-0.30
2023-03-27T05:38:37.345Z,-0.10
2023-03-27T05:41:06.642Z,0.00
2023-03-27T05:48:39.146Z,0.00
2023-03-27T05:51:08.870Z,0.00
2023-03-27T05:53:38.690Z,0.20
2023-03-27T05:56:06.890Z,0.20
2023-03-27T05:58:34.504Z,0.30
2023-03-27T06:01:01.971Z,0.40
2023-03-27T06:03:30.494Z,0.40
2023-03-27T06:10:40.724Z,0.20
2023-03-27T06:13:09.792Z,0.00
2023-03-27T06:15:42.605Z,-0.20
2023-03-27T06:18:11.297Z,-0.20
2023-03-27T06:20:40.713Z,0.00
2023-03-27T06:23:08.956Z,0.20
2023-03-27T06:25:39.632Z,0.10
2023-03-27T06:33:15.447Z,0.00
2023-03-27T06:35:44.809Z,0.00
2023-03-27T06:38:21.156Z,0.10
2023-03-27T06:40:48.841Z,0.30
2023-03-27T06:43:21.931Z,0.40
2023-03-27T06:45:51.805Z,0.40
2023-03-27T06:48:25.826Z,0.70
2023-03-27T06:50:59.697Z,0.80
2023-03-27T06:57:46.262Z,0.80
2023-03-27T07:03:12.315Z,0.90
2023-03-27T07:05:55.035Z,1.00
2023-03-27T07:08:26.212Z,1.10
2023-03-27T07:11:10.576Z,0.90
2023-03-27T07:13:42.893Z,1.00
2023-03-27T07:16:15.239Z,1.10
2023-03-27T07:24:08.348Z,1.60
2023-03-27T07:26:35.963Z,1.80
2023-03-27T07:29:03.728Z,2.00
2023-03-27T07:31:49.032Z,2.00
2023-03-27T07:34:18.926Z,2.30
2023-03-27T07:36:59.499Z,2.40
2023-03-27T07:39:29.355Z,2.60
2023-03-27T07:44:41.814Z,2.50
2023-03-27T07:47:09.197Z,2.30
2023-03-27T07:49:40.035Z,2.20
2023-03-27T07:52:08.858Z,2.20
2023-03-27T07:54:37.440Z,2.20
2023-03-27T07:57:06.123Z,2.40
2023-03-27T07:59:34.405Z,2.50
2023-03-27T08:08:13.110Z,2.50
2023-03-27T08:10:40.969Z,2.40
2023-03-27T08:13:15.120Z,2.30
2023-03-27T08:15:42.885Z,2.30
2023-03-27T08:18:12.608Z,2.60
2023-03-27T08:20:58.647Z,2.70
2023-03-27T08:23:32.193Z,2.50
2023-03-27T08:31:35.957Z,2.80
2023-03-27T08:34:03.520Z,2.60
2023-03-27T08:36:33.838Z,2.50
2023-03-27T08:39:06.422Z,2.70
2023-03-27T08:41:57.578Z,3.00
2023-03-27T08:44:29.587Z,3.30
2023-03-27T08:47:25.303Z,3.30
2023-03-27T08:52:51.800Z,3.10
2023-03-27T08:55:25.587Z,2.90
2023-03-27T08:57:54.389Z,2.80
2023-03-27T09:00:27.074Z,2.60
2023-03-27T09:03:00.741Z,2.50
2023-03-27T09:05:41.971Z,2.80
2023-03-27T09:24:32.367Z,3.20
2023-03-27T09:27:07.546Z,3.00
2023-03-27T09:29:46.554Z,3.10
2023-03-27T09:32:16.399Z,3.20
2023-03-27T09:34:53.012Z,3.10
2023-03-27T09:37:21.584Z,3.20
2023-03-27T09:40:26.640Z,3.60
2023-03-27T09:47:15.173Z,3.90
2023-03-27T09:49:48.494Z,3.90
2023-03-27T09:52:34.806Z,3.80
2023-03-27T09:55:03.291Z,3.90
2023-03-27T09:57:43.322Z,4.10
2023-03-27T10:00:42.263Z,4.20
2023-03-27T10:09:29.430Z,4.00
2023-03-27T10:12:08.967Z,3.80
2023-03-27T10:14:55.917Z,4.30
2023-03-27T10:17:34.255Z,4.30
2023-03-27T10:20:13.536Z,4.30
2023-03-27T10:22:43.164Z,4.20
2023-03-27T10:25:24.678Z,4.10
2023-03-27T10:33:36.673Z,4.20
2023-03-27T10:36:06.992Z,4.20
2023-03-27T10:38:40.048Z,4.50
2023-03-27T10:41:14.653Z,4.30
2023-03-27T10:43:45.016Z,4.00
2023-03-27T10:46:16.066Z,3.70
2023-03-27T10:54:42.656Z,4.10
2023-03-27T10:57:16.209Z,4.40
2023-03-27T10:59:47.645Z,4.60
2023-03-27T11:02:23.043Z,4.40
2023-03-27T11:04:58.335Z,4.10
2023-03-27T11:07:33.647Z,4.10
2023-03-27T11:16:23.851Z,3.20
2023-03-27T11:18:58.311Z,2.50
2023-03-27T11:21:36.841Z,2.50
2023-03-27T11:24:11.158Z,2.80
2023-03-27T11:27:01.889Z,2.60
2023-03-27T11:29:36.451Z,2.70
2023-03-27T11:32:14.852Z,2.90
2023-03-27T11:39:39.432Z,3.20
2023-03-27T11:42:17.825Z,3.30
2023-03-27T11:44:55.085Z,3.60
2023-03-27T11:47:45.003Z,3.90
2023-03-27T11:50:23.167Z,3.80
2023-03-27T11:53:13.667Z,3.90
2023-03-27T11:56:09.217Z,4.20
2023-03-27T12:04:17.427Z,4.10
2023-03-27T12:06:51.463Z,4.70
2023-03-27T12:09:39.496Z,4.80
2023-03-27T12:12:28.356Z,4.70
2023-03-27T12:15:07.731Z,4.70
2023-03-27T12:17:51.159Z,4.60
2023-03-27T12:25:59.189Z,5.10
2023-03-27T12:28:46.588Z,5.20
2023-03-27T12:31:32.400Z,5.20
2023-03-27T12:34:07.933Z,5.30
2023-03-27T12:36:38.757Z,5.40
2023-03-27T12:39:28.901Z,5.80
2023-03-27T12:42:00.440Z,5.70
2023-03-27T12:49:47.658Z,4.70
2023-03-27T12:52:18.602Z,4.40
2023-03-27T12:55:06.896Z,4.40
2023-03-27T12:57:43.594Z,4.70
2023-03-27T13:00:23.339Z,4.60
2023-03-27T13:03:21.865Z,4.60
2023-03-27T13:11:08.126Z,4.60
2023-03-27T13:14:07.395Z,5.10
2023-03-27T13:16:56.420Z,5.70
2023-03-27T13:19:34.411Z,5.10
2023-03-27T13:22:20.817Z,5.10
2023-03-27T13:25:15.320Z,4.40
2023-03-27T13:33:11.453Z,4.30
2023-03-27T13:35:52.789Z,4.30
2023-03-27T13:38:58.245Z,4.10
2023-03-27T13:42:06.464Z,4.10
2023-03-27T13:45:01.717Z,4.20
2023-03-27T13:56:27.413Z,4.90
2023-03-27T13:59:28.844Z,5.20
2023-03-27T14:02:17.085Z,4.80
2023-03-27T14:05:06.000Z,4.30
2023-03-27T14:07:55.837Z,4.20
2023-03-27T14:10:50.676Z,4.30
2023-03-27T14:18:52.745Z,3.80
2023-03-27T14:21:37.819Z,4.10
2023-03-27T14:24:17.747Z,4.10
2023-03-27T14:26:45.773Z,4.20
2023-03-27T14:29:16.898Z,4.30
2023-03-27T14:31:44.600Z,4.30
2023-03-27T14:34:22.425Z,4.20
2023-03-27T14:36:51.834Z,4.40
2023-03-27T14:44:26.531Z,4.80
2023-03-27T14:47:03.271Z,4.50
2023-03-27T14:49:38.750Z,4.90
2023-03-27T14:52:10.089Z,5.30
2023-03-27T14:54:54.339Z,5.00
2023-03-27T14:57:27.192Z,4.90
2023-03-27T14:59:56.715Z,5.30
2023-03-27T15:07:28.370Z,5.50
2023-03-27T15:10:12.228Z,4.90
2023-03-27T15:12:46.497Z,4.60
2023-03-27T15:15:26.897Z,4.40
2023-03-27T15:17:55.373Z,4.30
2023-03-27T15:20:34.536Z,4.20
2023-03-27T15:26:24.095Z,4.30
2023-03-27T15:29:01.176Z,4.40
2023-03-27T15:31:29.998Z,4.50
2023-03-27T15:34:02.825Z,4.50
2023-03-27T15:36:32.534Z,4.30
2023-03-27T15:39:02.370Z,4.10
2023-03-27T15:41:44.320Z,4.10
2023-03-27T15:49:40.052Z,3.80
2023-03-27T15:52:30.861Z,3.80
2023-03-27T15:55:00.989Z,3.70
2023-03-27T15:57:29.603Z,3.50
2023-03-27T16:00:10.427Z,3.40
2023-03-27T16:02:41.138Z,3.20
2023-03-27T16:08:41.388Z,3.40
2023-03-27T16:11:11.703Z,3.30
2023-03-27T16:13:52.064Z,3.50
2023-03-27T16:16:28.482Z,3.70
2023-03-27T16:19:00.114Z,3.60
2023-03-27T16:21:28.337Z,3.70
2023-03-27T16:23:56.424Z,3.60
2023-03-27T16:30:53.080Z,3.40
2023-03-27T16:33:22.785Z,3.40
2023-03-27T16:35:58.943Z,3.20
2023-03-27T16:38:27.732Z,3.10
2023-03-27T16:40:55.752Z,3.10
2023-03-27T16:43:25.985Z,3.00
2023-03-27T16:45:59.978Z,3.10
2023-03-27T16:53:28.044Z,3.00
2023-03-27T16:55:56.322Z,2.80
2023-03-27T16:58:23.966Z,2.80
2023-03-27T17:00:55.403Z,3.10
2023-03-27T17:03:23.600Z,3.30
2023-03-27T17:05:51.218Z,3.30
2023-03-27T17:08:18.792Z,3.10
2023-03-27T17:15:58.437Z,3.20
2023-03-27T17:18:28.335Z,3.30
2023-03-27T17:20:59.812Z,3.30
2023-03-27T17:23:29.824Z,3.20
2023-03-27T17:26:00.621Z,3.30
2023-03-27T17:28:31.738Z,3.10
2023-03-27T17:31:06.110Z,3.10
2023-03-27T17:38:36.210Z,3.00
2023-03-27T17:41:06.428Z,2.80
2023-03-27T17:43:34.635Z,3.00
2023-03-27T17:46:03.066Z,2.90
2023-03-27T17:48:38.753Z,2.80
2023-03-27T17:51:10.330Z,2.60
2023-03-27T17:53:39.633Z,2.30
2023-03-27T18:02:34.925Z,2.30
2023-03-27T18:05:02.975Z,2.30
2023-03-27T18:07:32.318Z,2.10
2023-03-27T18:09:59.690Z,2.10
2023-03-27T18:12:27.347Z,2.10
2023-03-27T18:14:55.290Z,2.00
2023-03-27T18:17:23.228Z,2.10
2023-03-27T18:22:48.572Z,2.40
2023-03-27T18:25:17.927Z,2.30
2023-03-27T18:27:49.635Z,2.30
2023-03-27T18:30:29.890Z,2.50
2023-03-27T18:33:00.425Z,2.60
2023-03-27T18:35:28.737Z,2.60
2023-03-27T18:38:08.062Z,2.50
2023-03-27T18:45:18.665Z,2.40
2023-03-27T18:47:46.408Z,2.20
2023-03-27T18:50:15.771Z,2.20
2023-03-27T18:52:44.011Z,2.20
2023-03-27T18:55:12.538Z,2.20
2023-03-27T18:57:40.955Z,2.40
2023-03-27T19:00:09.315Z,2.50
2023-03-27T19:02:44.092Z,2.40
2023-03-27T19:10:20.547Z,2.50
2023-03-27T19:12:49.965Z,2.60
2023-03-27T19:15:20.385Z,2.70
2023-03-27T19:17:51.833Z,2.40
2023-03-27T19:20:22.562Z,2.10
2023-03-27T19:22:52.774Z,2.00
2023-03-27T19:25:22.397Z,1.80
2023-03-27T19:27:54.185Z,1.80
2023-03-27T19:33:04.297Z,1.80
2023-03-27T19:35:34.302Z,1.80
2023-03-27T19:38:03.326Z,1.70
2023-03-27T19:40:31.174Z,1.70
2023-03-27T19:43:01.549Z,1.80
2023-03-27T19:45:29.474Z,1.70
2023-03-27T19:47:57.431Z,1.70
2023-03-27T19:55:27.134Z,1.60
2023-03-27T19:57:55.737Z,1.80
2023-03-27T20:00:23.693Z,1.80
2023-03-27T20:02:55.477Z,1.80
2023-03-27T20:05:25.802Z,1.90
2023-03-27T20:07:54.029Z,1.80
2023-03-27T20:10:22.653Z,1.80
2023-03-27T20:12:53.078Z,1.90
2023-03-27T20:20:34.893Z,2.20
2023-03-27T20:23:02.438Z,2.10
2023-03-27T20:25:33.694Z,2.20
2023-03-27T20:28:15.493Z,2.10
2023-03-27T20:30:55.521Z,2.00
2023-03-27T20:33:23.215Z,1.90
2023-03-27T20:35:55.844Z,1.80
2023-03-27T20:38:49.544Z,1.90
2023-03-27T20:46:24.158Z,1.80
2023-03-27T20:48:55.026Z,1.60
2023-03-27T20:51:24.943Z,1.50
2023-03-27T20:53:55.072Z,1.70
2023-03-27T20:56:23.456Z,1.60
2023-03-27T20:58:52.132Z,1.60
2023-03-27T21:01:19.988Z,1.40
2023-03-27T21:06:38.132Z,1.30
2023-03-27T21:09:06.030Z,1.40
2023-03-27T21:11:37.048Z,1.40
2023-03-27T21:14:04.174Z,1.40
2023-03-27T21:16:37.357Z,1.40
2023-03-27T21:19:11.150Z,1.30
2023-03-27T21:21:45.391Z,1.20
2023-03-27T21:29:18.381Z,1.20
2023-03-27T21:31:46.301Z,1.10
2023-03-27T21:34:13.927Z,1.20
2023-03-27T21:36:41.605Z,1.20
2023-03-27T21:39:16.515Z,1.20
2023-03-27T21:41:44.414Z,1.10
2023-03-27T21:44:11.819Z,1.20
2023-03-27T21:51:15.057Z,1.20
2023-03-27T21:53:45.553Z,1.20
2023-03-27T21:56:13.229Z,1.40
2023-03-27T21:58:43.738Z,1.30
2023-03-27T22:01:11.440Z,1.30
2023-03-27T22:03:38.477Z,1.20
2023-03-27T22:06:12.570Z,1.10
2023-03-27T22:08:44.199Z,1.20
2023-03-27T22:13:50.851Z,0.90
2023-03-27T22:16:19.846Z,0.80
2023-03-27T22:18:50.969Z,0.70
2023-03-27T22:21:21.660Z,0.90
2023-03-27T22:23:52.784Z,0.90
2023-03-27T22:26:24.572Z,1.00
2023-03-27T22:29:03.694Z,0.90
2023-03-27T22:36:37.616Z,0.70
2023-03-27T22:39:05.518Z,0.90
2023-03-27T22:41:32.544Z,0.80
2023-03-27T22:44:00.599Z,0.80
2023-03-27T22:46:29.363Z,0.90
2023-03-27T22:48:59.741Z,1.00
2023-03-27T22:51:29.193Z,0.90
2023-03-27T22:59:19.862Z,0.80
2023-03-27T23:01:47.391Z,0.70
2023-03-27T23:04:15.094Z,0.70
2023-03-27T23:06:47.611Z,0.70
2023-03-27T23:09:15.077Z,0.80
2023-03-27T23:11:48.914Z,0.80
2023-03-27T23:14:19.472Z,0.80
2023-03-27T23:19:37.500Z,0.80
2023-03-27T23:22:04.445Z,0.80
2023-03-27T23:24:41.087Z,0.80
2023-03-27T23:27:08.640Z,0.80
2023-03-27T23:29:40.482Z,0.60
2023-03-27T23:32:10.285Z,0.60
2023-03-27T23:34:38.398Z,0.60
2023-03-27T23:37:23.584Z,0.70
2023-03-27T23:42:46.349Z,0.80
2023-03-27T23:45:41.197Z,0.70
2023-03-27T23:48:08.601Z,0.90
2023-03-27T23:50:35.839Z,0.80
2023-03-27T23:53:03.450Z,0.70
2023-03-27T23:55:30.788Z,0.70
2023-03-27T23:58:01.953Z,0.60
